Tropical Cyclones
[Index]
Main Index Home Page Stock Weather Photos Extreme Storms Discussion Storm News and Storm Chasing Reports Tropical Cyclones / Hurricanes / Typhoons Weather Data and Links Wild Fires / Bushfires Weather Observation Techniques Weather Picture Catalogue Tornado Pictures and Reports Stock Video Footage and DVDs for sale
Season 2016-2017 Tropical Cyclone 201714 Track Map
Season 2016-2017 Summaries (Operational Data): [AU] [SIO] [SPAC] [SH]
<<- Previous TC | 2016-2017 Season | Next TC ->>

click for intensity scale information  Lat/long Grid: Show Hide

 Date Labels: Show Hide

Operational Tropical Cyclone Data : JTWC Advisories

Name: 201714
Number: 1714

01 Apr 2017 18:00 UTC to 19 Apr 2017 18:00 UTC

    date/time    lat    long     hPa   cat  kts
2017-04-01 18   12.1   173.8W   1010         15          
2017-04-02 00   12.1   173.1W   1010         15          
2017-04-02 06   12.3   172.2W   1010         15          
2017-04-02 12   12.8   171.4W   1010         15          
2017-04-02 18   13.4   170.6W   1006         20          
2017-04-03 00   13.9   170.0W   1004         25          
2017-04-03 06   14.4   169.6W   1006         25          
2017-04-03 12   14.7   169.4W   1005         25          
2017-04-03 18   15.6   169.4W   1004         25          
2017-04-04 00   16.4   169.5W   1004         25          
2017-04-04 06   17.3   169.6W   1004         25          
2017-04-04 12   18.6   169.7W   1004         25          
2017-04-04 18   19.1   169.8W   1002         25          
2017-04-05 00   19.5   170.1W   1000         30          
2017-04-05 06   19.8   170.5W   1000         30          
2017-04-05 12   20.1   170.8W    998    1    35          
2017-04-05 18   20.3   170.6W    998    1    35          
2017-04-06 00   20.4   170.4W   1001    1    35          
2017-04-06 06   20.6   170.1W   1002         30          
2017-04-06 12   20.8   169.8W   1001         30          
2017-04-06 18   21.8   168.8W   1000         30          
2017-04-07 00   22.4   168.6W   1000         30          
2017-04-07 06   22.2   168.9W   1000         30          
2017-04-07 12   21.9   169.4W   1004         25          
2017-04-07 18   21.5   169.8W   1004         25          
2017-04-08 00   21.5   170.3W   1004         25          
2017-04-08 06   21.6   170.9W   1004         25          
2017-04-08 12   21.6   171.4W   1004         25          
2017-04-08 18   21.8   172.1W   1004         25          
2017-04-09 00   22.0   172.8W   1004         25          
2017-04-09 06   22.5   173.5W   1006         20          
2017-04-09 12   23.0   173.7W   1007         20          
2017-04-09 18   24.0   173.7W   1004         25          
2017-04-10 00   24.7   173.2W   1004         25          
2017-04-10 06   25.0   172.4W   1003         25          
2017-04-10 12   25.2   171.7W   1004         25          
2017-04-10 18   25.7   170.2W   1004         25          
2017-04-11 00   26.0   168.9W   1004         25          
2017-04-11 06   26.1   168.1W   1004         25          
2017-04-11 12   26.2   167.7W   1004         25          
2017-04-11 18   25.4   167.1W    997                     
2017-04-12 00   25.1   167.0W    994                     
2017-04-12 06   24.2   165.9W    991                     
2017-04-12 12   24.5   164.9W    993                     
2017-04-12 18   24.4   164.5W    995                     
2017-04-13 00   24.0   163.8W                            
2017-04-13 06   23.0   163.5W                            
2017-04-13 12   22.5   161.0W                            
2017-04-13 18   23.2   160.7W                            
2017-04-14 00   22.9   159.9W                            
2017-04-14 06   23.3   159.3W                            
2017-04-14 12   23.1   159.6W                            
2017-04-14 18   23.3   159.9W                            
2017-04-15 00   22.5   158.6W                            
2017-04-15 06   21.0   158.3W                            
2017-04-15 12   21.0   157.4W                            
2017-04-15 18   21.9   157.2W                            
2017-04-16 00   20.8   157.5W                            
2017-04-16 06   19.8   159.2W                            
2017-04-16 12   18.6   161.9W                            
2017-04-16 18   18.5   162.4W                            
2017-04-17 00   18.1   163.1W                            
2017-04-17 06   17.6   166.0W                            
2017-04-17 12   18.5   167.4W                            
2017-04-17 18   20.0   168.4W                            
2017-04-18 00   17.7   167.9W                            
2017-04-18 06   18.8   169.7W                            
2017-04-18 12   19.2   168.8W                            
2017-04-18 18   19.8   170.2W                            
2017-04-19 00   20.9   170.0W                            
2017-04-19 06   19.2   170.1W                            
2017-04-19 12   20.1   169.7W                            
2017-04-19 18   20.2   171.4W                            
Winds are 10-min average.

Tropical cyclone tracks developed by Michael Bath using operational warnings and advisories and Google Maps.


[Australian Severe Weather index] [Copyright Notice] [Email Contacts] [Search This Site] [Privacy Policy]
Document: tropical_cyclone_201714.htm Updated: 4 July 2017